My Meet Scores
Mya McClelland, Aspire Gymnastics Academy - MyMeetScores.com
Top100 | Top Teams | Upcoming Meets | Completed Meets | Latest | Add Scores | Help| Support | Bookmark and Share

Mya McClelland, Aspire Gymnastics Academy
Personal Bests
LevelVault BarsBeamFloorAA
39.5008.900 9.2009.40036.825
49.6009.575 9.5509.50037.900
Scores on America's Top 100as of 10.30.2020
Year Level Vault Bars Beam Floor AA
2020 49.600

Click here to view our exclusive Top 100 Collection
Meet Scores
Date Meet Team Session Level Division Vault Bars Beam Floor AA
2020-03-06 Illinois Level 4 State Championships Aspire Gymnastics Academy 5 4 Jr C 9.375 5 9.575 4T 9.525 6 9.425 8 37.900 4
2020-02-21 Great Western Invitational - Women's Aspire Gymnastics Academy 06 4 Pony 9.200 1 9.450 2 9.425 3T 9.275 1T 37.350 1
2020-02-14 Big Classic Aspire Gymnastics Academy 6B 4 Child D 9.450 9 9.500 6 9.025 37T 8.600 55 36.575 19T
2020-01-24 Uga Invitational Aspire Gymnastics Academy B3 4 Jr A 9.150 2 9.525 3 9.125 6 9.325 1 37.125 2
2020-01-17 2020 Bravo Classic Aspire Gymnastics Academy 6B 4 Jr 9.600 1 9.450 3T 9.175 4T 9.500 1 37.725 1
2019-12-20 Aspire Classic - 2019 Aspire Gymnastics Academy 7A 4 Middle 9.225 1 9.500 1 9.550 1 8.800 12 37.075 1
2019-12-13 2019 St Nick Aspire Gymnastics Academy 6B 4 SrA 9.125 4 9.225 4 9.375 3 9.300 6T 37.025 5
2019-03-22 Illinois Gymnastics State Championships Aspire Gymnastics Academy 6 4 YT A 9.200 7 9.225 13 9.275 14T 8.900 21 36.600 13
2019-03-08 Lucky Invite Aspire Gymnastics Academy A07 4 Jr B 9.000 4 9.000 6T 8.775 12 8.475 17 35.250 8
2019-02-23 Kinetic Classic 2019 Aspire Gymnastics Academy 1 4 Younger 8.675 17T 8.750 25 8.825 24T 8.850 23T 35.100 23T
2019-02-15 Big ClassicBIG CLASSIC Aspire Gymnastics Academy 5A 4 Child B 9.050 5 8.800 9 8.975 7 9.075 5 35.900 7T
2019-01-25 UGA Invitational Aspire Gymnastics Academy B06 4 Ch B 8.900 7 9.000 11T 9.125 8 8.600 13T 35.625 9
2019-01-18 2019 Bravo Classic Aspire Gymnastics Academy 3B 4 Child 8.875 20 8.700 15 8.600 17 8.900 13T 35.075 17
2018-12-14 2018 Aspire Classic Aspire Gymnastics Academy 5A 4 Younger 8.950 7 8.750 13T 8.525 23 9.000 17 35.225 17
2018-12-07 St. Nick Invite 2018 Aspire Gymnastics Academy 6A 4 JrB 9.275 3 8.825 3 8.525 11 8.900 4 35.525 3
2018-11-17 Paul Hamm Thanksgiving Class WOMENS Aspire Gymnastics Academy 6 4 Younger 8.525 18 8.675 16T 8.700 17 9.050 17T 34.950 18
2018-05-03 Illinois USA Gymnastics Level 3 State Championships Aspire Gymnastics Academy 4 3 Youth B 9.475 15* 8.900 20T 9.050 8* 9.400 7 36.825 12T
2018-01-26 2018 UGA Classic Aspire Gymnastics Academy A8 3 Jr B 9.100 12T 8.250 15 9.200 13 8.850 14 35.400 13
2018-01-19 2018 Bravo Classic Aspire Gymnastics Academy 7B 3 Jr 9.200 6T 8.750 11 9.100 7T 9.025 9 36.075 10T
2017-12-15 2017 Aspire Classic Aspire Gymnastics Academy 11A 3 Middle 9.500 6 8.775 17 8.275 16 9.100 14 35.650 16
2017-12-08 St. Nick Invite Aspire Gymnastics Academy 6A 3 JrB 9.225 4 8.825 8 7.650 15 8.725 8 34.425 9T
2017-11-16 Paul Hamm Thanksgiving Classic - Women Aspire Gymnastics Academy 5 3 Younger 9.375 6T 8.900 14T 8.350 19 8.700 14T 35.325 15
Get your scores on
a t-shirt, pin, or hoodie

www.lazysuits.com